createdAt,value
2023-01-11T00:01:27.259Z,3.30
2023-01-11T00:03:54.815Z,3.67
2023-01-11T00:06:21.626Z,3.20
2023-01-11T00:08:48.403Z,3.40
2023-01-11T00:11:16.798Z,3.58
2023-01-11T00:13:45.305Z,2.45
2023-01-11T00:16:12.599Z,2.85
2023-01-11T00:18:40.889Z,3.05
2023-01-11T00:21:08.056Z,3.17
2023-01-11T00:23:38.413Z,3.80
2023-01-11T00:26:06.835Z,4.05
2023-01-11T00:28:34.271Z,3.10
2023-01-11T00:31:01.012Z,4.70
2023-01-11T00:33:27.907Z,2.95
2023-01-11T00:35:55.031Z,3.53
2023-01-11T00:38:41.979Z,3.35
2023-01-11T00:41:28.474Z,3.35
2023-01-11T00:44:13.905Z,3.33
2023-01-11T00:46:59.357Z,4.22
2023-01-11T00:49:26.086Z,3.33
2023-01-11T00:51:52.803Z,3.70
2023-01-11T00:54:20.136Z,3.72
2023-01-11T00:56:47.097Z,3.50
2023-01-11T00:59:14.162Z,3.55
2023-01-11T01:01:40.977Z,2.97
2023-01-11T01:04:07.863Z,3.50
2023-01-11T01:06:34.567Z,2.70
2023-01-11T01:09:01.321Z,3.08
2023-01-11T01:11:28.087Z,3.55
2023-01-11T01:14:13.429Z,2.88
2023-01-11T01:16:42.213Z,2.90
2023-01-11T01:19:09.378Z,2.60
2023-01-11T01:21:37.372Z,2.70
2023-01-11T01:24:04.168Z,2.70
2023-01-11T01:26:30.893Z,2.50
2023-01-11T01:28:57.578Z,2.55
2023-01-11T01:31:24.344Z,2.65
2023-01-11T01:33:51.055Z,2.65
2023-01-11T01:36:17.857Z,3.67
2023-01-11T01:38:44.686Z,2.65
2023-01-11T01:41:13.979Z,3.00
2023-01-11T01:43:48.788Z,3.15
2023-01-11T01:46:16.493Z,3.28
2023-01-11T01:48:48.409Z,2.70
2023-01-11T01:51:23.266Z,3.13
2023-01-11T01:53:53.854Z,2.30
2023-01-11T01:56:47.328Z,2.58
2023-01-11T01:59:16.993Z,2.60
2023-01-11T02:01:48.825Z,2.50
2023-01-11T02:04:37.315Z,2.30
2023-01-11T02:07:27.271Z,2.60
2023-01-11T02:10:11.337Z,2.55
2023-01-11T02:12:46.892Z,2.35
2023-01-11T02:15:16.239Z,2.30
2023-01-11T02:17:43.091Z,2.22
2023-01-11T02:20:41.759Z,2.10
2023-01-11T02:23:11.469Z,2.55
2023-01-11T02:25:59.878Z,2.80
2023-01-11T02:28:26.566Z,1.77
2023-01-11T02:31:19.631Z,2.42
2023-01-11T02:34:02.439Z,2.33
2023-01-11T02:36:48.382Z,2.00
2023-01-11T02:39:15.040Z,1.75
2023-01-11T02:42:43.462Z,2.28
2023-01-11T02:45:19.157Z,2.50
2023-01-11T02:48:26.422Z,2.50
2023-01-11T02:51:12.250Z,1.88
2023-01-11T02:53:47.626Z,2.00
2023-01-11T02:56:23.152Z,1.98
2023-01-11T02:58:52.193Z,2.13
2023-01-11T03:01:22.663Z,2.33
2023-01-11T03:03:50.621Z,2.13
2023-01-11T03:06:21.309Z,2.40
2023-01-11T03:09:13.235Z,2.00
2023-01-11T03:12:32.396Z,2.38
2023-01-11T03:15:36.288Z,1.80
2023-01-11T03:18:38.423Z,2.13
2023-01-11T03:21:23.734Z,1.90
2023-01-11T03:24:08.583Z,2.35
2023-01-11T03:27:13.867Z,1.88
2023-01-11T03:29:47.449Z,2.10
2023-01-11T03:32:24.238Z,2.20
2023-01-11T03:35:02.794Z,2.20
2023-01-11T03:37:41.804Z,2.03
2023-01-11T03:40:15.103Z,1.50
2023-01-11T03:43:05.675Z,1.80
2023-01-11T03:45:37.887Z,1.90
2023-01-11T03:48:06.850Z,2.03
2023-01-11T03:50:34.174Z,1.63
2023-01-11T03:53:04.165Z,1.60
2023-01-11T03:55:35.810Z,1.65
2023-01-11T03:58:02.689Z,2.35
2023-01-11T04:00:31.597Z,1.90
2023-01-11T04:03:00.537Z,1.85
2023-01-11T04:05:27.377Z,2.20
2023-01-11T04:07:54.538Z,2.35
2023-01-11T04:10:21.231Z,1.98
2023-01-11T04:12:48.721Z,2.22
2023-01-11T04:15:16.537Z,2.00
2023-01-11T04:17:43.337Z,2.00
2023-01-11T04:20:10.862Z,2.30
2023-01-11T04:22:37.684Z,2.45
2023-01-11T04:25:05.006Z,2.10
2023-01-11T04:27:31.743Z,2.08
2023-01-11T04:29:58.444Z,2.00
2023-01-11T04:32:25.230Z,2.00
2023-01-11T04:34:51.942Z,2.15
2023-01-11T04:37:18.734Z,1.80
2023-01-11T04:39:45.392Z,2.17
2023-01-11T04:42:21.260Z,2.37
2023-01-11T04:44:50.113Z,2.25
2023-01-11T04:47:18.746Z,1.95
2023-01-11T04:49:46.364Z,1.83
2023-01-11T04:52:15.804Z,2.00
2023-01-11T04:54:43.106Z,2.05
2023-01-11T04:57:14.800Z,2.15
2023-01-11T04:59:41.834Z,1.85
2023-01-11T05:02:08.573Z,2.35
2023-01-11T05:04:35.317Z,2.00
2023-01-11T05:07:02.173Z,1.83
2023-01-11T05:09:28.965Z,2.13
2023-01-11T05:11:55.646Z,2.10
2023-01-11T05:14:22.339Z,2.75
2023-01-11T05:16:49.271Z,2.63
2023-01-11T05:19:16.036Z,2.40
2023-01-11T05:21:42.826Z,2.00
2023-01-11T05:24:12.822Z,2.05
2023-01-11T05:26:41.486Z,1.50
2023-01-11T05:29:12.207Z,2.00
2023-01-11T05:31:40.668Z,2.40
2023-01-11T05:34:08.317Z,2.47
2023-01-11T05:36:35.798Z,2.45
2023-01-11T05:39:04.154Z,2.42
2023-01-11T05:41:30.966Z,3.10
2023-01-11T05:44:16.384Z,3.25
2023-01-11T05:46:44.309Z,3.75
2023-01-11T05:49:12.452Z,4.45
2023-01-11T05:51:39.645Z,3.10
2023-01-11T05:54:09.443Z,3.45
2023-01-11T05:56:36.217Z,2.80
2023-01-11T05:59:04.000Z,3.70
2023-01-11T06:01:31.392Z,3.50
2023-01-11T06:03:58.057Z,3.57
2023-01-11T06:06:25.013Z,3.83
2023-01-11T06:08:51.915Z,4.73
2023-01-11T06:11:18.683Z,4.10
2023-01-11T06:13:45.640Z,2.20
2023-01-11T06:16:15.190Z,5.83
2023-01-11T06:18:44.650Z,3.90
2023-01-11T06:21:11.699Z,3.10
2023-01-11T06:23:40.981Z,3.50
2023-01-11T06:26:10.321Z,2.90
2023-01-11T06:28:37.978Z,2.67
2023-01-11T06:31:06.071Z,2.33
2023-01-11T06:33:33.390Z,2.77
2023-01-11T06:36:05.036Z,2.33
2023-01-11T06:38:31.848Z,2.50
2023-01-11T06:41:00.601Z,2.30
2023-01-11T06:43:28.975Z,1.87
2023-01-11T06:45:56.528Z,2.53
2023-01-11T06:48:23.763Z,2.40
2023-01-11T06:50:51.913Z,2.20
2023-01-11T06:53:19.060Z,2.30
2023-01-11T06:55:49.983Z,2.67
2023-01-11T06:58:16.673Z,2.63
2023-01-11T07:00:43.687Z,3.20
2023-01-11T07:03:12.087Z,3.10
2023-01-11T07:05:39.838Z,3.10
2023-01-11T07:08:06.580Z,2.93
2023-01-11T07:10:33.508Z,2.20
2023-01-11T07:13:00.263Z,3.30
2023-01-11T07:15:27.194Z,5.73
2023-01-11T07:17:55.579Z,3.07
2023-01-11T07:20:23.174Z,1.97
2023-01-11T07:22:50.569Z,2.10
2023-01-11T07:25:17.788Z,1.83
2023-01-11T07:27:44.721Z,1.55
2023-01-11T07:30:11.924Z,1.80
2023-01-11T07:32:39.100Z,2.00
2023-01-11T07:35:06.309Z,1.45
2023-01-11T07:37:34.107Z,1.50
2023-01-11T07:40:00.867Z,2.23
2023-01-11T07:42:46.068Z,2.90
2023-01-11T07:45:12.985Z,2.40
2023-01-11T07:47:39.867Z,2.60
2023-01-11T07:50:07.337Z,2.95
2023-01-11T07:52:34.118Z,3.97
2023-01-11T07:55:02.755Z,2.93
2023-01-11T07:57:30.583Z,2.80
2023-01-11T07:59:57.405Z,2.70
2023-01-11T08:02:24.302Z,3.00
2023-01-11T08:04:51.189Z,3.40
2023-01-11T08:07:17.928Z,4.30
2023-01-11T08:09:44.711Z,4.03
2023-01-11T08:12:30.252Z,3.87
2023-01-11T08:14:56.944Z,4.88
2023-01-11T08:17:23.678Z,4.13
2023-01-11T08:19:50.409Z,3.15
2023-01-11T08:22:19.910Z,2.90
2023-01-11T08:24:46.761Z,3.67
2023-01-11T08:27:13.692Z,3.10
2023-01-11T08:29:44.041Z,3.10
2023-01-11T08:32:14.530Z,3.80
2023-01-11T08:34:41.343Z,3.40
2023-01-11T08:37:08.507Z,3.57
2023-01-11T08:39:35.235Z,3.07
2023-01-11T08:42:03.166Z,2.50
2023-01-11T08:44:34.194Z,2.27
2023-01-11T08:47:01.774Z,2.23
2023-01-11T08:49:30.330Z,2.20
2023-01-11T08:51:57.088Z,2.13
2023-01-11T08:54:24.841Z,1.90
2023-01-11T08:56:51.651Z,1.97
2023-01-11T08:59:19.859Z,1.45
2023-01-11T09:01:47.150Z,1.70
2023-01-11T09:04:24.285Z,1.30
2023-01-11T09:06:52.970Z,1.47
2023-01-11T09:09:19.726Z,2.00
2023-01-11T09:11:56.522Z,1.57
2023-01-11T09:14:24.669Z,1.53
2023-01-11T09:16:52.610Z,1.90
2023-01-11T09:19:19.534Z,1.90
2023-01-11T09:21:46.628Z,1.50
2023-01-11T09:24:14.089Z,2.30
2023-01-11T09:26:43.330Z,1.90
2023-01-11T09:29:10.895Z,2.30
2023-01-11T09:31:37.988Z,2.90
2023-01-11T09:34:05.458Z,2.00
2023-01-11T09:36:33.291Z,2.60
2023-01-11T09:39:02.172Z,1.80
2023-01-11T09:41:41.878Z,1.70
2023-01-11T09:44:18.984Z,2.17
2023-01-11T09:46:56.091Z,1.67
2023-01-11T09:49:28.013Z,1.77
2023-01-11T09:52:14.892Z,1.63
2023-01-11T09:54:43.261Z,1.80
2023-01-11T09:57:38.932Z,2.20
2023-01-11T10:00:27.281Z,1.60
2023-01-11T10:03:35.476Z,1.50
2023-01-11T10:06:18.684Z,1.37
2023-01-11T10:18:29.332Z,1.30
2023-01-11T10:19:10.327Z,1.67
2023-01-11T10:21:54.494Z,1.50
2023-01-11T10:25:07.556Z,1.50
2023-01-11T10:27:38.816Z,1.77
2023-01-11T10:30:34.259Z,1.20
2023-01-11T10:33:24.009Z,1.60
2023-01-11T10:36:30.759Z,1.30
2023-01-11T10:39:46.465Z,1.73
2023-01-11T10:42:21.928Z,1.50
2023-01-11T10:44:58.315Z,2.00
2023-01-11T10:47:34.645Z,1.60
2023-01-11T10:50:37.491Z,1.87
2023-01-11T10:53:12.825Z,1.60
2023-01-11T10:56:02.601Z,7.20
2023-01-11T10:58:57.871Z,6.57
2023-01-11T11:01:34.903Z,17.93
2023-01-11T11:04:17.615Z,28.60
2023-01-11T11:06:55.634Z,17.83
2023-01-11T11:09:43.528Z,44.43
2023-01-11T11:12:37.248Z,20.00
2023-01-11T11:15:24.179Z,14.47
2023-01-11T11:17:53.057Z,7.13
2023-01-11T11:20:28.538Z,16.77
2023-01-11T11:22:58.597Z,7.93
2023-01-11T11:25:49.477Z,4.47
2023-01-11T11:28:33.647Z,1.90
2023-01-11T11:31:07.139Z,2.00
2023-01-11T11:33:37.006Z,2.10
2023-01-11T11:36:08.881Z,1.70
2023-01-11T11:38:38.089Z,2.80
2023-01-11T11:41:09.689Z,2.53
2023-01-11T11:43:44.782Z,1.73
2023-01-11T11:46:18.766Z,1.67
2023-01-11T11:49:10.640Z,1.43
2023-01-11T11:51:38.611Z,1.50
2023-01-11T11:54:05.487Z,1.43
2023-01-11T11:56:41.273Z,1.60
2023-01-11T11:59:14.441Z,1.87
2023-01-11T12:01:46.918Z,2.20
2023-01-11T12:04:13.791Z,1.80
2023-01-11T12:06:41.222Z,1.43
2023-01-11T12:09:17.826Z,1.80
2023-01-11T12:11:48.524Z,2.00
2023-01-11T12:14:23.685Z,3.13
2023-01-11T12:16:50.542Z,1.57
2023-01-11T12:19:41.661Z,1.67
2023-01-11T12:22:22.597Z,1.50
2023-01-11T12:25:15.218Z,1.57
2023-01-11T12:27:58.526Z,1.40
2023-01-11T12:30:39.509Z,1.80
2023-01-11T12:33:09.302Z,2.50
2023-01-11T12:35:51.635Z,3.43
2023-01-11T12:38:36.360Z,3.77
2023-01-11T12:41:48.249Z,3.47
2023-01-11T12:44:33.027Z,4.30
2023-01-11T12:47:40.634Z,2.90
2023-01-11T12:50:25.611Z,3.10
2023-01-11T12:53:37.732Z,3.83
2023-01-11T12:56:26.823Z,3.20
2023-01-11T12:59:24.645Z,2.47
2023-01-11T13:02:13.489Z,2.00
2023-01-11T13:05:05.319Z,1.80
2023-01-11T13:07:59.358Z,1.83
2023-01-11T13:10:36.726Z,2.73
2023-01-11T13:13:20.373Z,2.20
2023-01-11T13:16:17.813Z,2.30
2023-01-11T13:18:59.013Z,1.80
2023-01-11T13:21:52.932Z,1.47
2023-01-11T13:24:32.951Z,1.30
2023-01-11T13:27:03.294Z,1.20
2023-01-11T13:29:49.934Z,2.00
2023-01-11T13:32:37.646Z,2.27
2023-01-11T13:35:17.191Z,2.60
2023-01-11T13:37:54.839Z,2.23
2023-01-11T13:40:26.151Z,1.47
2023-01-11T13:43:21.558Z,2.20
2023-01-11T13:45:50.781Z,3.33
2023-01-11T13:48:56.718Z,3.10
2023-01-11T13:51:44.894Z,3.37
2023-01-11T13:54:24.107Z,3.03
2023-01-11T13:57:00.149Z,1.73
2023-01-11T13:59:34.136Z,1.40
2023-01-11T14:02:05.031Z,1.40
2023-01-11T14:04:37.373Z,1.70
2023-01-11T14:07:19.114Z,1.77
2023-01-11T14:10:01.837Z,2.50
2023-01-11T14:13:06.297Z,4.60
2023-01-11T14:15:40.958Z,5.27
2023-01-11T14:18:14.961Z,3.77
2023-01-11T14:21:05.787Z,3.20
2023-01-11T14:23:49.160Z,3.20
2023-01-11T14:26:38.196Z,3.60
2023-01-11T14:29:32.387Z,3.07
2023-01-11T14:32:08.192Z,3.00
2023-01-11T14:35:16.026Z,2.83
2023-01-11T14:38:04.198Z,2.30
2023-01-11T14:40:48.773Z,1.80
2023-01-11T14:43:24.447Z,2.00
2023-01-11T14:45:53.906Z,1.97
2023-01-11T14:48:40.436Z,2.20
2023-01-11T14:51:18.875Z,1.80
2023-01-11T14:54:02.648Z,1.70
2023-01-11T14:56:48.013Z,2.30
2023-01-11T14:59:28.767Z,2.60
2023-01-11T15:02:04.721Z,1.50
2023-01-11T15:04:35.753Z,1.50
2023-01-11T15:07:27.040Z,1.80
2023-01-11T15:09:53.952Z,1.00
2023-01-11T15:12:21.998Z,1.90
2023-01-11T15:15:21.385Z,1.57
2023-01-11T15:18:15.108Z,2.60
2023-01-11T15:21:02.055Z,1.77
2023-01-11T15:23:35.339Z,6.13
2023-01-11T15:26:09.492Z,8.43
2023-01-11T15:28:56.157Z,3.43
2023-01-11T15:32:03.440Z,1.90
2023-01-11T15:34:38.698Z,3.30
2023-01-11T15:37:08.087Z,3.50
2023-01-11T15:39:56.288Z,2.00
2023-01-11T15:42:54.749Z,1.10
2023-01-11T15:46:03.291Z,1.50
2023-01-11T15:48:38.874Z,1.10
2023-01-11T15:51:16.159Z,1.13
2023-01-11T15:54:10.585Z,1.90
2023-01-11T15:57:13.869Z,0.97
2023-01-11T16:00:06.514Z,1.00
2023-01-11T16:02:52.157Z,1.20
2023-01-11T16:05:23.681Z,1.50
2023-01-11T16:07:56.110Z,1.40
2023-01-11T16:10:52.638Z,1.47
2023-01-11T16:13:24.026Z,1.80
2023-01-11T16:16:10.418Z,2.50
2023-01-11T16:18:46.116Z,1.83
2023-01-11T16:21:37.356Z,1.30
2023-01-11T16:24:09.561Z,2.23
2023-01-11T16:26:39.448Z,2.43
2023-01-11T16:29:22.767Z,1.80
2023-01-11T16:32:02.962Z,2.83
2023-01-11T16:34:42.494Z,1.63
2023-01-11T16:37:37.788Z,2.60
2023-01-11T16:40:15.089Z,1.93
2023-01-11T16:43:06.050Z,2.53
2023-01-11T16:45:51.045Z,2.83
2023-01-11T16:48:26.772Z,2.13
2023-01-11T16:51:04.592Z,1.90
2023-01-11T16:53:37.439Z,2.13
2023-01-11T16:56:13.135Z,1.57
2023-01-11T16:58:40.527Z,2.23
2023-01-11T17:01:10.166Z,2.00
2023-01-11T17:03:43.240Z,1.57
2023-01-11T17:06:15.211Z,2.93
2023-01-11T17:08:48.170Z,2.20
2023-01-11T17:11:36.983Z,2.47
2023-01-11T17:14:22.421Z,3.30
2023-01-11T17:16:53.761Z,2.70
2023-01-11T17:19:26.730Z,2.67
2023-01-11T17:22:07.258Z,1.90
2023-01-11T17:24:41.669Z,1.87
2023-01-11T17:27:22.206Z,1.60
2023-01-11T17:29:51.099Z,1.63
2023-01-11T17:32:34.282Z,1.90
2023-01-11T17:35:07.001Z,1.90
2023-01-11T17:37:34.317Z,1.67
2023-01-11T17:40:01.697Z,2.10
2023-01-11T17:42:47.336Z,1.93
2023-01-11T17:45:24.844Z,2.37
2023-01-11T17:47:53.768Z,2.40
2023-01-11T17:50:50.326Z,2.10
2023-01-11T17:53:26.628Z,2.07
2023-01-11T17:55:57.582Z,5.00
2023-01-11T17:58:33.644Z,2.43
2023-01-11T18:01:09.838Z,5.20
2023-01-11T18:03:51.497Z,1.87
2023-01-11T18:06:31.273Z,1.73
2023-01-11T18:08:59.234Z,2.57
2023-01-11T18:11:29.623Z,4.10
2023-01-11T18:13:59.685Z,5.37
2023-01-11T18:16:26.919Z,4.53
2023-01-11T18:18:55.079Z,1.77
2023-01-11T18:21:40.208Z,2.10
2023-01-11T18:24:09.833Z,2.80
2023-01-11T18:26:41.330Z,3.07
2023-01-11T18:29:53.502Z,3.20
2023-01-11T18:32:20.661Z,2.97
2023-01-11T18:34:51.013Z,4.10
2023-01-11T18:37:18.153Z,3.00
2023-01-11T18:39:44.859Z,2.70
2023-01-11T18:42:16.966Z,3.17
2023-01-11T18:44:47.650Z,2.17
2023-01-11T18:47:22.104Z,3.40
2023-01-11T18:49:50.543Z,2.63
2023-01-11T18:52:18.578Z,2.80
2023-01-11T18:54:46.175Z,3.20
2023-01-11T18:57:12.917Z,3.20
2023-01-11T18:59:39.870Z,3.90
2023-01-11T19:02:37.217Z,3.53
2023-01-11T19:05:05.194Z,5.97
2023-01-11T19:07:32.000Z,3.47
2023-01-11T19:09:59.438Z,3.10
2023-01-11T19:12:26.230Z,3.67
2023-01-11T19:14:53.067Z,4.33
2023-01-11T19:17:20.034Z,2.87
2023-01-11T19:19:46.843Z,4.77
2023-01-11T19:22:13.580Z,2.50
2023-01-11T19:24:41.384Z,2.70
2023-01-11T19:27:08.196Z,2.07
2023-01-11T19:29:34.875Z,2.77
2023-01-11T19:32:01.534Z,2.17
2023-01-11T19:34:28.328Z,2.73
2023-01-11T19:36:55.117Z,2.10
2023-01-11T19:39:22.946Z,3.30
2023-01-11T19:42:01.221Z,4.50
2023-01-11T19:44:33.188Z,3.63
2023-01-11T19:47:10.976Z,4.10
2023-01-11T19:49:39.577Z,4.40
2023-01-11T19:52:12.373Z,3.53
2023-01-11T19:54:41.931Z,2.27
2023-01-11T19:57:18.960Z,2.90
2023-01-11T19:59:46.442Z,2.13
2023-01-11T20:02:14.788Z,2.83
2023-01-11T20:04:41.932Z,3.70
2023-01-11T20:07:10.676Z,3.63
2023-01-11T20:09:37.917Z,4.00
2023-01-11T20:12:06.138Z,3.10
2023-01-11T20:14:33.896Z,2.87
2023-01-11T20:17:01.256Z,3.00
2023-01-11T20:19:28.601Z,2.97
2023-01-11T20:21:56.023Z,3.40
2023-01-11T20:24:29.398Z,3.50
2023-01-11T20:27:00.993Z,3.77
2023-01-11T20:29:27.952Z,3.40
2023-01-11T20:31:54.741Z,4.00
2023-01-11T20:34:21.552Z,3.07
2023-01-11T20:36:48.984Z,3.10
2023-01-11T20:39:17.424Z,3.13
2023-01-11T20:41:46.925Z,3.60
2023-01-11T20:44:18.075Z,2.80
2023-01-11T20:46:47.820Z,2.83
2023-01-11T20:49:15.081Z,2.57
2023-01-11T20:51:42.600Z,2.80
2023-01-11T20:54:10.082Z,2.47
2023-01-11T20:56:38.496Z,2.93
2023-01-11T20:59:07.409Z,2.93
2023-01-11T21:01:34.556Z,2.50
2023-01-11T21:04:04.906Z,2.20
2023-01-11T21:06:33.534Z,2.10
2023-01-11T21:09:01.611Z,2.40
2023-01-11T21:11:29.023Z,2.53
2023-01-11T21:13:56.130Z,2.00
2023-01-11T21:16:24.505Z,2.20
2023-01-11T21:19:00.168Z,3.13
2023-01-11T21:21:28.407Z,3.00
2023-01-11T21:23:57.130Z,2.23
2023-01-11T21:26:25.117Z,2.20
2023-01-11T21:29:00.364Z,3.37
2023-01-11T21:31:32.652Z,1.87
2023-01-11T21:34:00.272Z,3.40
2023-01-11T21:36:30.320Z,2.90
2023-01-11T21:38:58.942Z,2.97
2023-01-11T21:41:47.453Z,3.10
2023-01-11T21:44:15.160Z,4.10
2023-01-11T21:46:42.984Z,3.53
2023-01-11T21:49:10.516Z,3.90
2023-01-11T21:51:37.382Z,4.67
2023-01-11T21:54:06.730Z,3.87
2023-01-11T21:56:33.569Z,3.80
2023-01-11T21:59:00.463Z,3.53
2023-01-11T22:01:27.649Z,3.30
2023-01-11T22:03:54.843Z,2.53
2023-01-11T22:06:21.605Z,2.00
2023-01-11T22:08:48.480Z,2.13
2023-01-11T22:11:16.856Z,2.57
2023-01-11T22:13:44.421Z,2.63
2023-01-11T22:16:16.635Z,3.23
2023-01-11T22:18:44.880Z,1.80
2023-01-11T22:21:17.999Z,2.00
2023-01-11T22:23:46.871Z,2.20
2023-01-11T22:26:16.219Z,3.53
2023-01-11T22:29:02.248Z,3.57
2023-01-11T22:31:30.359Z,2.67
2023-01-11T22:33:57.755Z,3.47
2023-01-11T22:36:25.653Z,3.13
2023-01-11T22:38:53.012Z,2.87
2023-01-11T22:41:20.201Z,2.37
2023-01-11T22:43:47.975Z,2.90
2023-01-11T22:46:17.095Z,3.00
2023-01-11T22:48:44.586Z,2.87
2023-01-11T22:51:11.786Z,3.03
2023-01-11T22:53:39.878Z,2.53
2023-01-11T22:56:07.511Z,2.70
2023-01-11T22:58:37.553Z,2.30
2023-01-11T23:01:23.225Z,2.90
2023-01-11T23:03:51.295Z,1.83
2023-01-11T23:06:20.952Z,2.80
2023-01-11T23:08:47.872Z,3.07
2023-01-11T23:11:39.734Z,4.70
2023-01-11T23:14:09.431Z,3.87
2023-01-11T23:16:36.982Z,2.67
2023-01-11T23:19:05.047Z,2.33
2023-01-11T23:21:32.358Z,2.03
2023-01-11T23:24:01.841Z,2.80
2023-01-11T23:26:29.335Z,2.93
2023-01-11T23:28:56.100Z,1.83
2023-01-11T23:31:25.416Z,1.73
2023-01-11T23:33:57.579Z,2.03
2023-01-11T23:36:28.408Z,2.00
2023-01-11T23:38:55.170Z,1.90
2023-01-11T23:41:41.395Z,2.03
2023-01-11T23:44:10.811Z,2.10
2023-01-11T23:46:57.230Z,2.00
2023-01-11T23:49:27.620Z,1.73
2023-01-11T23:51:55.348Z,1.80
2023-01-11T23:54:25.299Z,1.60
2023-01-11T23:56:52.007Z,1.97
2023-01-11T23:59:18.706Z,1.70
